createdAt,value
2018-01-23T00:02:19.616Z,6.33
2018-01-23T00:04:47.120Z,5.07
2018-01-23T00:07:14.637Z,4.67
2018-01-23T00:09:42.161Z,5.10
2018-01-23T00:12:09.661Z,4.23
2018-01-23T00:14:37.267Z,3.90
2018-01-23T00:17:04.763Z,3.80
2018-01-23T00:19:33.816Z,4.30
2018-01-23T00:22:01.306Z,5.27
2018-01-23T00:24:28.814Z,4.37
2018-01-23T00:26:56.327Z,5.60
2018-01-23T00:29:23.815Z,5.17
2018-01-23T00:31:52.140Z,4.30
2018-01-23T00:34:19.644Z,5.40
2018-01-23T00:36:47.153Z,6.57
2018-01-23T00:39:14.695Z,5.50
2018-01-23T00:41:42.216Z,4.40
2018-01-23T00:44:10.503Z,5.50
2018-01-23T00:46:38.763Z,5.60
2018-01-23T00:49:07.060Z,5.20
2018-01-23T00:51:34.576Z,5.03
2018-01-23T00:54:02.104Z,4.83
2018-01-23T00:56:29.606Z,6.50
2018-01-23T00:58:57.879Z,5.80
2018-01-23T01:01:25.393Z,6.10
2018-01-23T01:03:52.879Z,5.57
2018-01-23T01:06:20.398Z,5.80
2018-01-23T01:08:47.918Z,5.30
2018-01-23T01:11:16.203Z,5.50
2018-01-23T01:13:44.497Z,5.33
2018-01-23T01:16:11.995Z,5.60
2018-01-23T01:18:39.534Z,6.47
2018-01-23T01:21:07.045Z,5.50
2018-01-23T01:23:35.339Z,5.93
2018-01-23T01:26:02.840Z,5.30
2018-01-23T01:28:30.356Z,6.53
2018-01-23T01:30:57.854Z,5.57
2018-01-23T01:33:25.383Z,6.00
2018-01-23T01:35:52.900Z,4.77
2018-01-23T01:38:21.163Z,5.43
2018-01-23T01:40:48.685Z,5.77
2018-01-23T01:43:16.178Z,5.40
2018-01-23T01:45:43.705Z,4.97
2018-01-23T01:48:11.195Z,5.23
2018-01-23T01:50:38.674Z,4.57
2018-01-23T01:53:06.198Z,5.13
2018-01-23T01:55:33.713Z,4.17
2018-01-23T01:58:01.220Z,5.30
2018-01-23T02:00:28.706Z,4.00
2018-01-23T02:02:56.259Z,4.77
2018-01-23T02:05:23.775Z,4.33
2018-01-23T02:07:51.270Z,4.93
2018-01-23T02:10:19.554Z,4.53
2018-01-23T02:12:47.830Z,4.03
2018-01-23T02:15:16.119Z,4.10
2018-01-23T02:17:43.647Z,4.63
2018-01-23T02:20:11.943Z,4.20
2018-01-23T02:22:39.460Z,3.70
2018-01-23T02:25:06.945Z,4.63
2018-01-23T02:27:35.231Z,3.97
2018-01-23T02:30:02.729Z,4.50
2018-01-23T02:32:30.256Z,3.47
2018-01-23T02:34:57.770Z,5.17
2018-01-23T02:37:25.281Z,3.47
2018-01-23T02:39:52.805Z,3.80
2018-01-23T02:42:21.088Z,2.77
2018-01-23T02:44:49.371Z,3.53
2018-01-23T02:47:16.863Z,4.00
2018-01-23T02:49:44.372Z,4.93
2018-01-23T02:52:12.651Z,4.53
2018-01-23T02:54:40.923Z,3.80
2018-01-23T02:57:09.212Z,4.23
2018-01-23T02:59:36.718Z,3.30
2018-01-23T03:02:04.248Z,4.10
2018-01-23T03:04:31.763Z,3.10
2018-01-23T03:07:00.015Z,3.20
2018-01-23T03:09:27.534Z,4.10
2018-01-23T03:11:55.039Z,2.93
2018-01-23T03:14:22.593Z,3.60
2018-01-23T03:16:50.076Z,3.20
2018-01-23T03:19:18.375Z,3.20
2018-01-23T03:21:45.891Z,3.60
2018-01-23T03:24:13.388Z,4.77
2018-01-23T03:26:40.921Z,3.63
2018-01-23T03:29:09.183Z,3.80
2018-01-23T03:31:36.668Z,3.43
2018-01-23T03:34:04.187Z,3.33
2018-01-23T03:36:31.684Z,3.03
2018-01-23T03:38:59.201Z,3.23
2018-01-23T03:41:26.696Z,3.60
2018-01-23T03:43:54.256Z,3.53
2018-01-23T03:46:21.768Z,3.63
2018-01-23T03:48:49.261Z,4.00
2018-01-23T03:51:17.536Z,3.80
2018-01-23T03:53:45.787Z,4.40
2018-01-23T03:56:13.308Z,3.77
2018-01-23T03:58:40.815Z,4.63
2018-01-23T04:01:09.108Z,4.03
2018-01-23T04:03:37.382Z,3.57
2018-01-23T04:06:05.653Z,3.23
2018-01-23T04:08:33.943Z,3.10
2018-01-23T04:11:01.452Z,4.47
2018-01-23T04:13:28.969Z,2.60
2018-01-23T04:15:56.476Z,2.90
2018-01-23T04:18:24.018Z,4.37
2018-01-23T04:20:51.535Z,5.00
2018-01-23T04:23:19.032Z,2.90
2018-01-23T04:25:46.567Z,3.10
2018-01-23T04:28:14.062Z,3.30
2018-01-23T04:30:42.364Z,3.07
2018-01-23T04:33:10.657Z,2.87
2018-01-23T04:35:38.162Z,3.27
2018-01-23T04:38:05.660Z,4.00
2018-01-23T04:40:33.955Z,3.80
2018-01-23T04:43:01.481Z,2.97
2018-01-23T04:45:29.015Z,2.30
2018-01-23T04:47:56.533Z,2.70
2018-01-23T04:50:24.051Z,3.90
2018-01-23T04:52:52.346Z,3.00
2018-01-23T04:55:19.835Z,2.83
2018-01-23T04:57:47.323Z,3.43
2018-01-23T05:00:14.863Z,2.97
2018-01-23T05:02:42.369Z,2.70
2018-01-23T05:05:10.635Z,2.60
2018-01-23T05:07:38.935Z,2.80
2018-01-23T05:10:06.438Z,3.53
2018-01-23T05:12:33.939Z,2.80
2018-01-23T05:15:01.461Z,2.70
2018-01-23T05:17:28.988Z,3.20
2018-01-23T05:19:56.524Z,2.53
2018-01-23T05:22:24.016Z,2.90
2018-01-23T05:24:51.624Z,3.27
2018-01-23T05:27:19.123Z,2.50
2018-01-23T05:29:46.610Z,2.40
2018-01-23T05:32:14.144Z,2.40
2018-01-23T05:34:41.656Z,2.77
2018-01-23T05:37:09.147Z,2.50
2018-01-23T05:39:36.656Z,2.43
2018-01-23T05:42:04.915Z,3.00
2018-01-23T05:44:32.492Z,3.00
2018-01-23T05:47:00.746Z,2.60
2018-01-23T05:49:28.254Z,3.10
2018-01-23T05:51:55.779Z,2.17
2018-01-23T05:54:24.039Z,3.00
2018-01-23T05:56:51.571Z,2.60
2018-01-23T05:59:19.076Z,2.70
2018-01-23T06:01:47.365Z,2.30
2018-01-23T06:04:14.896Z,2.63
2018-01-23T06:06:42.389Z,2.53
2018-01-23T06:09:09.923Z,3.00
2018-01-23T06:11:38.179Z,2.97
2018-01-23T06:14:05.712Z,2.83
2018-01-23T06:16:33.217Z,2.80
2018-01-23T06:19:01.472Z,2.50
2018-01-23T06:21:29.016Z,2.90
2018-01-23T06:23:56.549Z,4.30
2018-01-23T06:26:24.060Z,3.40
2018-01-23T06:28:52.379Z,2.37
2018-01-23T06:31:19.883Z,2.50
2018-01-23T06:33:47.383Z,3.00
2018-01-23T06:36:14.894Z,2.43
2018-01-23T06:38:42.382Z,2.53
2018-01-23T06:41:09.911Z,2.93
2018-01-23T06:43:37.412Z,2.90
2018-01-23T06:46:04.943Z,2.90
2018-01-23T06:48:32.443Z,3.77
2018-01-23T06:50:59.931Z,3.50
2018-01-23T06:53:27.448Z,5.80
2018-01-23T06:55:54.951Z,5.70
2018-01-23T06:58:23.243Z,4.03
2018-01-23T07:00:51.511Z,4.87
2018-01-23T07:03:19.775Z,3.53
2018-01-23T07:05:47.299Z,3.60
2018-01-23T07:08:14.815Z,2.70
2018-01-23T07:10:42.336Z,4.20
2018-01-23T07:13:09.843Z,3.23
2018-01-23T07:15:37.398Z,6.20
2018-01-23T07:18:04.974Z,8.30
2018-01-23T07:20:32.448Z,6.17
2018-01-23T07:22:59.993Z,3.07
2018-01-23T07:25:27.509Z,3.17
2018-01-23T07:27:55.763Z,4.40
2018-01-23T07:30:23.290Z,3.57
2018-01-23T07:32:50.793Z,4.33
2018-01-23T07:35:19.076Z,4.07
2018-01-23T07:37:47.383Z,4.07
2018-01-23T07:40:15.699Z,4.00
2018-01-23T07:42:43.193Z,4.97
2018-01-23T07:45:11.451Z,5.07
2018-01-23T07:47:38.958Z,3.83
2018-01-23T07:50:06.444Z,4.53
2018-01-23T07:52:33.961Z,3.93
2018-01-23T07:55:01.474Z,4.20
2018-01-23T07:57:28.996Z,3.53
2018-01-23T07:59:56.490Z,3.87
2018-01-23T08:02:24.752Z,4.10
2018-01-23T08:04:52.296Z,3.67
2018-01-23T08:07:19.783Z,3.60
2018-01-23T08:09:48.075Z,4.70
2018-01-23T08:12:15.611Z,4.20
2018-01-23T08:14:43.133Z,4.30
2018-01-23T08:17:10.618Z,4.90
2018-01-23T08:19:39.651Z,4.27
2018-01-23T08:22:07.182Z,5.07
2018-01-23T08:24:35.448Z,5.90
2018-01-23T08:27:02.968Z,7.87
2018-01-23T08:29:30.475Z,9.47
2018-01-23T08:31:58.781Z,10.13
2018-01-23T08:34:26.278Z,8.67
2018-01-23T08:36:53.820Z,8.63
2018-01-23T08:39:21.319Z,7.60
2018-01-23T08:41:48.818Z,8.00
2018-01-23T08:44:16.338Z,4.50
2018-01-23T08:46:44.604Z,5.50
2018-01-23T08:49:12.195Z,4.40
2018-01-23T08:51:39.701Z,3.50
2018-01-23T08:54:07.207Z,4.10
2018-01-23T08:56:34.723Z,3.50
2018-01-23T08:59:02.223Z,3.97
2018-01-23T09:01:29.743Z,3.80
2018-01-23T09:03:57.234Z,3.60
2018-01-23T09:06:24.759Z,3.60
2018-01-23T09:08:53.035Z,4.37
2018-01-23T09:11:20.530Z,3.90
2018-01-23T09:13:48.045Z,3.13
2018-01-23T09:16:15.547Z,3.97
2018-01-23T09:18:43.057Z,3.60
2018-01-23T09:21:10.564Z,4.33
2018-01-23T09:23:38.083Z,3.90
2018-01-23T09:26:05.584Z,3.70
2018-01-23T09:28:33.087Z,4.13
2018-01-23T09:31:00.605Z,3.90
2018-01-23T09:33:28.091Z,3.87
2018-01-23T09:35:56.506Z,3.27
2018-01-23T09:38:24.782Z,3.43
2018-01-23T09:40:53.038Z,2.50
2018-01-23T09:43:20.606Z,3.00
2018-01-23T09:45:48.873Z,3.33
2018-01-23T09:48:16.391Z,3.10
2018-01-23T09:50:43.879Z,2.83
2018-01-23T09:53:11.435Z,2.83
2018-01-23T09:55:38.924Z,3.10
2018-01-23T09:58:07.200Z,3.27
2018-01-23T10:00:34.736Z,3.40
2018-01-23T10:03:02.250Z,3.30
2018-01-23T10:05:29.767Z,3.90
2018-01-23T10:07:58.038Z,3.40
2018-01-23T10:10:26.320Z,3.40
2018-01-23T10:12:54.587Z,3.33
2018-01-23T10:15:22.876Z,2.80
2018-01-23T10:17:51.155Z,2.50
2018-01-23T10:20:18.680Z,3.30
2018-01-23T10:22:46.199Z,3.23
2018-01-23T10:25:13.699Z,3.60
2018-01-23T10:27:41.225Z,3.00
2018-01-23T10:30:08.748Z,3.23
2018-01-23T10:32:36.251Z,3.00
2018-01-23T10:35:03.783Z,3.17
2018-01-23T10:37:31.280Z,3.30
2018-01-23T10:39:58.813Z,2.53
2018-01-23T10:42:26.331Z,3.00
2018-01-23T10:44:53.821Z,2.97
2018-01-23T10:47:21.352Z,3.23
2018-01-23T10:49:48.877Z,3.47
2018-01-23T10:52:16.414Z,2.73
2018-01-23T10:54:43.937Z,3.67
2018-01-23T10:57:11.467Z,4.33
2018-01-23T10:59:39.737Z,3.00
2018-01-23T11:02:07.280Z,3.20
2018-01-23T11:04:35.551Z,3.60
2018-01-23T11:07:03.042Z,3.30
2018-01-23T11:09:30.581Z,3.43
2018-01-23T11:11:58.855Z,4.97
2018-01-23T11:14:26.396Z,3.10
2018-01-23T11:16:54.683Z,3.00
2018-01-23T11:19:23.030Z,3.70
2018-01-23T11:21:50.583Z,3.60
2018-01-23T11:24:18.096Z,2.73
2018-01-23T11:26:46.359Z,3.40
2018-01-23T11:29:13.903Z,2.93
2018-01-23T11:31:41.411Z,2.90
2018-01-23T11:34:08.918Z,3.00
2018-01-23T11:36:36.460Z,2.70
2018-01-23T11:39:03.982Z,2.53
2018-01-23T11:41:32.255Z,2.90
2018-01-23T11:43:59.796Z,3.10
2018-01-23T11:46:27.292Z,2.87
2018-01-23T11:48:54.824Z,2.37
2018-01-23T11:51:22.312Z,2.60
2018-01-23T11:53:49.848Z,3.00
2018-01-23T11:56:17.368Z,2.73
2018-01-23T11:58:45.677Z,2.00
2018-01-23T12:01:13.184Z,2.77
2018-01-23T12:03:40.712Z,2.10
2018-01-23T12:06:08.227Z,2.97
2018-01-23T12:08:36.487Z,2.83
2018-01-23T12:11:04.791Z,2.53
2018-01-23T12:13:32.292Z,2.63
2018-01-23T12:15:59.813Z,2.97
2018-01-23T12:18:27.409Z,3.00
2018-01-23T12:20:54.932Z,4.33
2018-01-23T12:23:22.501Z,3.10
2018-01-23T12:25:50.001Z,3.57
2018-01-23T12:28:17.514Z,2.13
2018-01-23T12:30:45.082Z,1.87
2018-01-23T12:33:12.586Z,2.07
2018-01-23T12:35:40.096Z,3.07
2018-01-23T12:38:07.596Z,3.00
2018-01-23T12:40:35.892Z,3.10
2018-01-23T12:43:04.182Z,3.37
2018-01-23T12:45:31.684Z,2.63
2018-01-23T12:47:59.243Z,2.60
2018-01-23T12:50:26.750Z,2.23
2018-01-23T12:52:54.263Z,2.17
2018-01-23T12:55:21.759Z,2.20
2018-01-23T12:57:50.040Z,2.80
2018-01-23T13:00:17.628Z,2.30
2018-01-23T13:02:45.151Z,2.40
2018-01-23T13:05:12.685Z,2.13
2018-01-23T13:07:40.200Z,2.70
2018-01-23T13:10:07.731Z,2.53
2018-01-23T13:12:35.260Z,2.60
2018-01-23T13:15:02.779Z,2.40
2018-01-23T13:17:30.357Z,2.53
2018-01-23T13:19:57.841Z,3.53
2018-01-23T13:22:26.130Z,2.87
2018-01-23T13:24:53.642Z,2.67
2018-01-23T13:27:21.186Z,3.53
2018-01-23T13:29:48.728Z,2.43
2018-01-23T13:32:16.243Z,2.47
2018-01-23T13:34:44.573Z,2.43
2018-01-23T13:37:12.076Z,3.13
2018-01-23T13:39:39.601Z,3.20
2018-01-23T13:42:07.134Z,3.33
2018-01-23T13:44:34.675Z,3.00
2018-01-23T13:47:02.179Z,2.37
2018-01-23T13:49:29.740Z,2.93
2018-01-23T13:51:57.247Z,2.47
2018-01-23T13:54:24.760Z,2.50
2018-01-23T13:56:53.069Z,1.77
2018-01-23T13:59:20.584Z,2.97
2018-01-23T14:01:48.097Z,2.97
2018-01-23T14:04:15.665Z,2.43
2018-01-23T14:06:43.208Z,2.60
2018-01-23T14:09:10.735Z,2.90
2018-01-23T14:11:38.260Z,3.27
2018-01-23T14:14:05.803Z,2.40
2018-01-23T14:16:33.336Z,2.47
2018-01-23T14:19:01.629Z,2.53
2018-01-23T14:21:29.161Z,3.33
2018-01-23T14:23:57.452Z,3.20
2018-01-23T14:26:24.993Z,3.40
2018-01-23T14:28:53.270Z,4.17
2018-01-23T14:31:21.655Z,3.30
2018-01-23T14:33:49.294Z,3.27
2018-01-23T14:36:17.659Z,2.80
2018-01-23T14:38:45.186Z,3.10
2018-01-23T14:41:12.736Z,3.80
2018-01-23T14:43:40.294Z,3.00
2018-01-23T14:46:07.803Z,3.33
2018-01-23T14:48:35.339Z,2.80
2018-01-23T14:51:02.847Z,2.60
2018-01-23T14:53:30.411Z,3.13
2018-01-23T14:55:57.907Z,2.80
2018-01-23T14:58:25.483Z,3.40
2018-01-23T15:00:53.105Z,2.67
2018-01-23T15:03:20.628Z,2.40
2018-01-23T15:05:48.203Z,3.13
2018-01-23T15:08:15.707Z,2.80
2018-01-23T15:10:44.104Z,2.80
2018-01-23T15:13:11.598Z,2.63
2018-01-23T15:15:40.030Z,2.63
2018-01-23T15:18:07.592Z,2.63
2018-01-23T15:20:35.103Z,2.57
2018-01-23T15:23:02.593Z,2.97
2018-01-23T15:25:30.177Z,2.83
2018-01-23T15:27:58.464Z,3.80
2018-01-23T15:30:26.825Z,2.77
2018-01-23T15:32:54.322Z,2.13
2018-01-23T15:35:21.867Z,2.93
2018-01-23T15:37:49.412Z,3.17
2018-01-23T15:40:17.730Z,2.13
2018-01-23T15:42:45.251Z,2.53
2018-01-23T15:45:13.551Z,3.13
2018-01-23T15:47:41.103Z,3.20
2018-01-23T15:50:08.664Z,3.17
2018-01-23T15:52:36.195Z,3.07
2018-01-23T15:55:04.504Z,3.17
2018-01-23T15:57:32.811Z,2.93
2018-01-23T16:00:01.638Z,3.50
2018-01-23T16:02:29.915Z,2.87
2018-01-23T16:04:58.195Z,3.03
2018-01-23T16:07:26.482Z,2.80
2018-01-23T16:09:54.053Z,3.40
2018-01-23T16:12:21.547Z,4.17
2018-01-23T16:14:49.086Z,3.80
2018-01-23T16:17:16.591Z,3.30
2018-01-23T16:19:44.894Z,4.40
2018-01-23T16:22:12.440Z,4.33
2018-01-23T16:24:39.966Z,3.20
2018-01-23T16:27:07.495Z,3.20
2018-01-23T16:29:34.991Z,3.00
2018-01-23T16:32:03.290Z,4.00
2018-01-23T16:34:30.796Z,3.03
2018-01-23T16:36:58.323Z,3.27
2018-01-23T16:39:25.828Z,4.00
2018-01-23T16:41:53.352Z,3.27
2018-01-23T16:44:20.888Z,3.03
2018-01-23T16:46:48.444Z,3.90
2018-01-23T16:49:15.975Z,4.20
2018-01-23T16:51:44.259Z,3.70
2018-01-23T16:54:12.531Z,3.13
2018-01-23T16:56:40.946Z,2.97
2018-01-23T16:59:08.473Z,3.23
2018-01-23T17:01:36.761Z,4.00
2018-01-23T17:04:04.286Z,4.20
2018-01-23T17:06:31.804Z,5.00
2018-01-23T17:08:59.332Z,4.13
2018-01-23T17:11:26.848Z,3.70
2018-01-23T17:13:54.432Z,3.90
2018-01-23T17:16:22.703Z,3.57
2018-01-23T17:18:50.988Z,3.70
2018-01-23T17:21:18.558Z,3.33
2018-01-23T17:23:46.108Z,4.23
2018-01-23T17:26:14.432Z,3.93
2018-01-23T17:28:42.274Z,4.00
2018-01-23T17:31:10.142Z,4.20
2018-01-23T17:33:38.109Z,4.80
2018-01-23T17:36:06.077Z,4.50
2018-01-23T17:38:34.879Z,4.70
2018-01-23T17:41:03.650Z,5.10
2018-01-23T17:43:31.726Z,5.20
2018-01-23T17:45:59.699Z,3.70
2018-01-23T17:48:28.500Z,3.93
2018-01-23T17:50:57.168Z,4.10
2018-01-23T17:53:25.137Z,4.63
2018-01-23T17:55:53.102Z,4.30
2018-01-23T17:58:21.081Z,3.97
2018-01-23T18:00:48.938Z,3.90
2018-01-23T18:03:16.801Z,4.10
2018-01-23T18:05:44.664Z,4.90
2018-01-23T18:08:12.532Z,4.63
2018-01-23T18:10:40.499Z,4.93
2018-01-23T18:13:08.371Z,3.80
2018-01-23T18:15:36.139Z,5.57
2018-01-23T18:18:03.795Z,4.10
2018-01-23T18:20:31.386Z,6.13
2018-01-23T18:22:58.976Z,6.00
2018-01-23T18:25:27.287Z,6.70
2018-01-23T18:27:54.876Z,7.10
2018-01-23T18:30:22.441Z,5.60
2018-01-23T18:32:50.028Z,5.70
2018-01-23T18:35:18.328Z,7.90
2018-01-23T18:37:45.837Z,7.63
2018-01-23T18:40:13.392Z,5.90
2018-01-23T18:42:40.929Z,4.90
2018-01-23T18:45:08.559Z,5.80
2018-01-23T18:47:36.195Z,7.20
2018-01-23T18:50:03.900Z,5.50
2018-01-23T18:52:31.754Z,8.90
2018-01-23T18:54:59.725Z,8.33
2018-01-23T18:57:27.594Z,6.90
2018-01-23T18:59:55.458Z,7.37
2018-01-23T19:02:23.230Z,5.60
2018-01-23T19:04:51.085Z,6.60
2018-01-23T19:07:19.057Z,5.27
2018-01-23T19:09:46.825Z,6.90
2018-01-23T19:12:16.220Z,6.00
2018-01-23T19:14:44.082Z,5.00
2018-01-23T19:17:11.948Z,6.90
2018-01-23T19:19:39.824Z,5.03
2018-01-23T19:22:07.782Z,5.97
2018-01-23T19:24:35.447Z,7.90
2018-01-23T19:27:02.994Z,5.87
2018-01-23T19:29:30.709Z,5.67
2018-01-23T19:31:59.272Z,5.27
2018-01-23T19:34:26.788Z,5.80
2018-01-23T19:36:54.651Z,5.03
2018-01-23T19:39:22.965Z,5.03
2018-01-23T19:41:50.510Z,6.97
2018-01-23T19:44:18.036Z,5.13
2018-01-23T19:46:45.551Z,6.83
2018-01-23T19:49:13.119Z,10.03
2018-01-23T19:51:40.711Z,13.57
2018-01-23T19:54:09.034Z,8.47
2018-01-23T19:56:36.552Z,6.70
2018-01-23T19:59:04.104Z,6.67
2018-01-23T20:01:32.405Z,7.27
2018-01-23T20:04:00.888Z,6.90
2018-01-23T20:06:28.444Z,8.00
2018-01-23T20:08:55.961Z,10.20
2018-01-23T20:11:24.333Z,7.63
2018-01-23T20:13:51.865Z,7.00
2018-01-23T20:16:19.424Z,6.87
2018-01-23T20:18:46.985Z,7.27
2018-01-23T20:21:14.560Z,6.80
2018-01-23T20:23:42.419Z,6.33
2018-01-23T20:26:09.954Z,6.37
2018-01-23T20:28:37.505Z,6.20
2018-01-23T20:31:05.066Z,4.90
2018-01-23T20:33:32.627Z,6.67
2018-01-23T20:36:00.167Z,7.07
2018-01-23T20:38:27.690Z,7.00
2018-01-23T20:40:55.281Z,6.73
2018-01-23T20:43:22.796Z,5.90
2018-01-23T20:45:50.396Z,7.67
2018-01-23T20:48:18.625Z,7.53
2018-01-23T20:50:46.205Z,6.80
2018-01-23T20:53:14.542Z,7.60
2018-01-23T20:55:42.072Z,8.50
2018-01-23T20:58:09.592Z,7.23
2018-01-23T21:00:37.926Z,7.37
2018-01-23T21:03:05.476Z,8.23
2018-01-23T21:05:32.991Z,6.90
2018-01-23T21:08:00.592Z,6.43
2018-01-23T21:10:28.162Z,6.03
2018-01-23T21:12:56.362Z,6.70
2018-01-23T21:15:25.424Z,6.37
2018-01-23T21:17:52.955Z,6.10
2018-01-23T21:20:20.461Z,5.40
2018-01-23T21:22:48.017Z,5.33
2018-01-23T21:25:15.566Z,5.30
2018-01-23T21:27:43.119Z,5.87
2018-01-23T21:30:10.667Z,5.20
2018-01-23T21:32:38.198Z,5.60
2018-01-23T21:35:05.713Z,5.73
2018-01-23T21:37:33.248Z,5.40
2018-01-23T21:40:00.809Z,5.83
2018-01-23T21:42:28.320Z,6.87
2018-01-23T21:44:56.429Z,6.10
2018-01-23T21:47:23.969Z,5.97
2018-01-23T21:49:51.524Z,10.20
2018-01-23T21:52:19.025Z,6.93
2018-01-23T21:54:46.576Z,5.60
2018-01-23T21:57:14.120Z,6.10
2018-01-23T21:59:41.644Z,5.93
2018-01-23T22:02:09.211Z,6.00
2018-01-23T22:04:36.727Z,5.87
2018-01-23T22:07:04.274Z,6.83
2018-01-23T22:09:31.772Z,9.77
2018-01-23T22:11:59.310Z,7.50
2018-01-23T22:14:27.599Z,6.10
2018-01-23T22:16:55.856Z,4.70
2018-01-23T22:19:23.416Z,5.67
2018-01-23T22:21:50.947Z,6.03
2018-01-23T22:24:18.491Z,5.80
2018-01-23T22:26:45.994Z,4.37
2018-01-23T22:29:14.279Z,5.67
2018-01-23T22:31:42.568Z,5.17
2018-01-23T22:34:10.102Z,5.30
2018-01-23T22:36:38.411Z,6.20
2018-01-23T22:39:05.918Z,6.00
2018-01-23T22:41:33.438Z,6.10
2018-01-23T22:44:00.984Z,5.30
2018-01-23T22:46:28.495Z,5.13
2018-01-23T22:48:56.057Z,5.27
2018-01-23T22:51:23.572Z,6.30
2018-01-23T22:53:51.068Z,5.70
2018-01-23T22:56:18.609Z,4.80
2018-01-23T22:58:46.127Z,3.60
2018-01-23T23:01:13.684Z,4.97
2018-01-23T23:03:41.203Z,4.43
2018-01-23T23:06:08.743Z,5.30
2018-01-23T23:08:36.255Z,5.17
2018-01-23T23:11:03.769Z,4.00
2018-01-23T23:13:31.362Z,4.13
2018-01-23T23:15:59.634Z,4.60
2018-01-23T23:18:27.939Z,3.67
2018-01-23T23:20:55.450Z,4.37
2018-01-23T23:23:22.973Z,4.40
2018-01-23T23:25:50.479Z,4.60
2018-01-23T23:28:18.780Z,4.10
2018-01-23T23:30:46.304Z,3.90
2018-01-23T23:33:14.587Z,3.57
2018-01-23T23:35:42.109Z,3.60
2018-01-23T23:38:09.623Z,3.60
2018-01-23T23:40:37.201Z,3.63
2018-01-23T23:43:04.705Z,3.63
2018-01-23T23:45:32.240Z,3.00
2018-01-23T23:47:59.746Z,3.00
2018-01-23T23:50:27.271Z,3.07
2018-01-23T23:52:54.788Z,3.23
2018-01-23T23:55:22.320Z,2.80
2018-01-23T23:57:49.858Z,2.90
